createdAt,value
2023-04-24T00:00:54.146Z,49.80
2023-04-24T00:03:40.050Z,49.47
2023-04-24T00:06:25.539Z,48.45
2023-04-24T00:09:11.458Z,49.60
2023-04-24T00:11:57.113Z,45.92
2023-04-24T00:14:42.513Z,53.50
2023-04-24T00:17:27.437Z,47.15
2023-04-24T00:20:13.124Z,48.75
2023-04-24T00:22:58.424Z,47.35
2023-04-24T00:25:43.918Z,49.88
2023-04-24T00:28:29.481Z,43.27
2023-04-24T00:31:16.042Z,47.40
2023-04-24T00:34:01.532Z,43.30
2023-04-24T00:36:47.169Z,42.70
2023-04-24T00:39:32.851Z,43.55
2023-04-24T00:42:18.345Z,46.87
2023-04-24T00:45:04.224Z,48.33
2023-04-24T00:47:50.293Z,45.63
2023-04-24T00:50:36.998Z,41.35
2023-04-24T00:53:22.902Z,41.35
2023-04-24T00:56:08.600Z,41.77
2023-04-24T00:58:53.799Z,42.97
2023-04-24T01:01:42.956Z,40.00
2023-04-24T01:04:28.485Z,39.97
2023-04-24T01:07:13.513Z,37.83
2023-04-24T01:09:58.539Z,38.93
2023-04-24T01:12:43.592Z,40.70
2023-04-24T01:15:31.336Z,39.60
2023-04-24T01:18:16.662Z,36.00
2023-04-24T01:21:03.668Z,35.75
2023-04-24T01:23:50.261Z,35.17
2023-04-24T01:26:37.630Z,37.08
2023-04-24T01:29:22.454Z,37.42
2023-04-24T01:32:07.275Z,37.08
2023-04-24T01:34:52.462Z,34.45
2023-04-24T01:37:40.878Z,34.57
2023-04-24T01:40:26.335Z,36.00
2023-04-24T01:43:11.216Z,32.13
2023-04-24T01:45:56.211Z,32.47
2023-04-24T01:48:42.204Z,34.50
2023-04-24T01:51:28.008Z,31.73
2023-04-24T01:54:13.781Z,32.22
2023-04-24T01:56:58.672Z,32.00
2023-04-24T01:59:44.447Z,26.75
2023-04-24T02:02:31.324Z,33.65
2023-04-24T02:05:16.659Z,32.43
2023-04-24T02:08:01.618Z,30.65
2023-04-24T02:10:47.788Z,31.27
2023-04-24T02:13:32.885Z,31.23
2023-04-24T02:16:19.633Z,30.02
2023-04-24T02:19:04.755Z,33.53
2023-04-24T02:21:50.102Z,32.45
2023-04-24T02:24:35.302Z,29.60
2023-04-24T02:27:20.099Z,28.45
2023-04-24T02:30:05.982Z,30.35
2023-04-24T02:32:51.052Z,30.13
2023-04-24T02:35:37.195Z,31.85
2023-04-24T02:38:22.351Z,29.20
2023-04-24T02:41:07.864Z,28.83
2023-04-24T02:43:52.993Z,27.42
2023-04-24T02:46:38.111Z,29.17
2023-04-24T02:49:23.432Z,25.38
2023-04-24T02:52:08.533Z,30.95
2023-04-24T02:54:55.020Z,26.33
2023-04-24T02:57:40.370Z,27.75
2023-04-24T03:00:26.224Z,29.90
2023-04-24T03:03:11.409Z,26.80
2023-04-24T03:05:56.770Z,28.58
2023-04-24T03:08:42.046Z,25.25
2023-04-24T03:11:27.160Z,28.58
2023-04-24T03:14:12.383Z,24.23
2023-04-24T03:16:57.524Z,22.55
2023-04-24T03:19:42.862Z,24.70
2023-04-24T03:22:30.304Z,25.98
2023-04-24T03:25:15.621Z,23.30
2023-04-24T03:28:01.038Z,23.90
2023-04-24T03:31:06.599Z,23.15
2023-04-24T03:33:55.644Z,22.48
2023-04-24T03:36:40.587Z,23.77
2023-04-24T03:39:28.308Z,23.42
2023-04-24T03:42:14.988Z,22.63
2023-04-24T03:45:09.530Z,22.30
2023-04-24T03:47:57.200Z,23.10
2023-04-24T03:50:42.556Z,23.23
2023-04-24T03:53:30.198Z,22.40
2023-04-24T03:56:15.907Z,21.73
2023-04-24T03:59:01.541Z,21.17
2023-04-24T04:01:47.321Z,21.75
2023-04-24T04:04:35.046Z,19.73
2023-04-24T04:07:20.500Z,24.65
2023-04-24T04:10:06.060Z,21.70
2023-04-24T04:12:51.101Z,23.92
2023-04-24T04:15:36.829Z,20.77
2023-04-24T04:18:22.003Z,22.08
2023-04-24T04:21:07.477Z,21.38
2023-04-24T04:23:53.528Z,19.77
2023-04-24T04:26:47.942Z,20.10
2023-04-24T04:29:41.213Z,18.67
2023-04-24T04:32:27.852Z,20.08
2023-04-24T04:35:13.503Z,19.27
2023-04-24T04:37:59.788Z,16.53
2023-04-24T04:41:14.564Z,16.95
2023-04-24T04:44:00.171Z,16.02
2023-04-24T04:46:45.538Z,16.98
2023-04-24T04:49:49.141Z,16.60
2023-04-24T04:52:38.452Z,14.77
2023-04-24T04:55:34.148Z,16.23
2023-04-24T04:58:30.088Z,15.30
2023-04-24T05:01:18.690Z,13.75
2023-04-24T05:04:06.120Z,12.65
2023-04-24T05:06:52.195Z,13.43
2023-04-24T05:09:37.775Z,13.85
2023-04-24T05:12:24.608Z,11.82
2023-04-24T05:15:11.749Z,10.85
2023-04-24T05:17:58.095Z,13.73
2023-04-24T05:20:44.823Z,12.60
2023-04-24T05:23:30.318Z,12.32
2023-04-24T05:26:16.606Z,12.57
2023-04-24T05:29:02.385Z,13.45
2023-04-24T05:31:47.634Z,11.02
2023-04-24T05:34:33.548Z,10.37
2023-04-24T05:37:18.942Z,11.52
2023-04-24T05:40:06.294Z,13.48
2023-04-24T05:42:51.331Z,12.70
2023-04-24T05:45:37.076Z,10.93
2023-04-24T05:48:23.510Z,14.20
2023-04-24T05:51:10.541Z,10.00
2023-04-24T05:53:56.156Z,9.55
2023-04-24T05:56:43.170Z,10.18
2023-04-24T05:59:31.736Z,9.55
2023-04-24T06:02:17.477Z,7.03
2023-04-24T06:05:03.620Z,5.07
2023-04-24T06:07:49.152Z,4.80
2023-04-24T06:10:34.535Z,3.38
2023-04-24T06:13:19.721Z,4.15
2023-04-24T06:16:24.815Z,3.20
2023-04-24T06:19:16.614Z,3.85
2023-04-24T06:22:01.578Z,4.40
2023-04-24T06:24:48.454Z,5.38
2023-04-24T06:27:33.645Z,5.75
2023-04-24T06:30:18.959Z,4.13
2023-04-24T06:33:18.744Z,3.80
2023-04-24T06:36:06.188Z,3.97
2023-04-24T06:38:51.369Z,5.22
2023-04-24T06:41:37.019Z,6.40
2023-04-24T06:44:22.338Z,5.47
2023-04-24T06:47:09.470Z,4.35
2023-04-24T06:49:54.711Z,6.10
2023-04-24T06:52:40.060Z,5.22
2023-04-24T06:55:25.040Z,4.55
2023-04-24T06:58:10.188Z,4.73
2023-04-24T07:00:55.587Z,5.32
2023-04-24T07:03:40.885Z,4.80
2023-04-24T07:06:26.649Z,5.68
2023-04-24T07:09:11.965Z,6.25
2023-04-24T07:11:57.572Z,5.23
2023-04-24T07:14:42.869Z,4.50
2023-04-24T07:17:28.102Z,6.00
2023-04-24T07:20:15.455Z,5.25
2023-04-24T07:23:00.824Z,4.90
2023-04-24T07:25:46.120Z,5.03
2023-04-24T07:28:32.827Z,4.93
2023-04-24T07:31:18.401Z,3.92
2023-04-24T07:34:03.946Z,5.00
2023-04-24T07:36:49.223Z,4.15
2023-04-24T07:39:34.361Z,5.03
2023-04-24T07:42:19.228Z,3.30
2023-04-24T07:45:04.927Z,4.30
2023-04-24T07:47:51.543Z,4.90
2023-04-24T07:50:37.259Z,4.78
2023-04-24T07:53:22.373Z,3.80
2023-04-24T07:56:07.556Z,4.78
2023-04-24T07:58:52.758Z,4.20
2023-04-24T08:01:38.035Z,4.20
2023-04-24T08:04:23.397Z,4.07
2023-04-24T08:07:09.242Z,4.43
2023-04-24T08:09:54.926Z,5.38
2023-04-24T08:12:40.323Z,3.90
2023-04-24T08:15:25.908Z,4.65
2023-04-24T08:18:13.477Z,4.28
2023-04-24T08:21:02.290Z,3.73
2023-04-24T08:23:48.030Z,4.32
2023-04-24T08:26:33.245Z,4.07
2023-04-24T08:29:18.744Z,4.32
2023-04-24T08:32:03.875Z,3.55
2023-04-24T08:34:50.011Z,4.63
2023-04-24T08:37:35.288Z,4.22
2023-04-24T08:40:23.211Z,3.40
2023-04-24T08:43:08.699Z,4.40
2023-04-24T08:45:57.307Z,3.63
2023-04-24T08:48:43.008Z,4.10
2023-04-24T08:51:28.808Z,3.78
2023-04-24T08:54:15.210Z,4.47
2023-04-24T08:57:04.561Z,3.70
2023-04-24T08:59:50.197Z,3.80
2023-04-24T09:02:36.325Z,4.00
2023-04-24T09:05:22.356Z,3.83
2023-04-24T09:08:07.855Z,4.13
2023-04-24T09:10:53.161Z,4.57
2023-04-24T09:13:38.536Z,4.22
2023-04-24T09:16:25.305Z,4.73
2023-04-24T09:19:10.628Z,4.80
2023-04-24T09:21:56.209Z,4.10
2023-04-24T09:24:41.338Z,4.00
2023-04-24T09:27:26.107Z,3.97
2023-04-24T09:30:11.544Z,4.60
2023-04-24T09:33:15.999Z,4.65
2023-04-24T09:36:01.427Z,5.63
2023-04-24T09:38:47.422Z,4.38
2023-04-24T09:41:33.587Z,4.20
2023-04-24T09:44:21.878Z,4.53
2023-04-24T09:47:09.872Z,4.70
2023-04-24T09:49:58.779Z,4.63
2023-04-24T09:52:45.079Z,4.90
2023-04-24T09:55:30.369Z,5.10
2023-04-24T09:58:15.798Z,4.37
2023-04-24T10:01:01.081Z,4.25
2023-04-24T10:03:46.778Z,5.18
2023-04-24T10:06:36.113Z,5.75
2023-04-24T10:09:22.589Z,4.57
2023-04-24T10:12:08.979Z,4.30
2023-04-24T10:14:55.046Z,4.20
2023-04-24T10:17:41.429Z,4.05
2023-04-24T10:20:30.172Z,4.13
2023-04-24T10:23:15.937Z,4.80
2023-04-24T10:26:01.260Z,4.03
2023-04-24T10:28:47.030Z,4.80
2023-04-24T10:31:32.670Z,5.47
2023-04-24T10:34:19.335Z,4.75
2023-04-24T10:37:04.395Z,4.50
2023-04-24T10:39:49.769Z,4.77
2023-04-24T10:42:35.773Z,5.13
2023-04-24T10:45:22.843Z,4.38
2023-04-24T10:48:12.211Z,4.18
2023-04-24T10:50:57.631Z,4.68
2023-04-24T10:53:42.439Z,4.13
2023-04-24T10:56:27.758Z,5.13
2023-04-24T10:59:24.625Z,4.63
2023-04-24T11:02:10.233Z,4.60
2023-04-24T11:04:55.737Z,6.03
2023-04-24T11:08:00.028Z,4.90
2023-04-24T11:10:46.232Z,4.78
2023-04-24T11:13:50.477Z,4.30
2023-04-24T11:16:57.401Z,3.70
2023-04-24T11:19:42.496Z,6.13
2023-04-24T11:22:29.205Z,4.37
2023-04-24T11:25:17.210Z,5.45
2023-04-24T11:28:06.274Z,5.30
2023-04-24T11:30:52.185Z,4.95
2023-04-24T11:33:37.368Z,4.47
2023-04-24T11:36:22.799Z,4.30
2023-04-24T11:39:08.206Z,5.43
2023-04-24T11:41:53.472Z,5.45
2023-04-24T11:44:39.368Z,4.28
2023-04-24T11:47:31.081Z,3.95
2023-04-24T11:50:17.527Z,4.60
2023-04-24T11:53:02.311Z,5.30
2023-04-24T11:55:47.561Z,4.55
2023-04-24T11:58:36.858Z,4.68
2023-04-24T12:01:22.485Z,4.43
2023-04-24T12:04:08.325Z,5.10
2023-04-24T12:07:03.970Z,4.65
2023-04-24T12:09:52.585Z,4.85
2023-04-24T12:12:38.084Z,4.43
2023-04-24T12:15:23.253Z,4.90
2023-04-24T12:18:12.468Z,5.30
2023-04-24T12:21:15.510Z,4.28
2023-04-24T12:24:00.401Z,4.10
2023-04-24T12:26:45.590Z,4.47
2023-04-24T12:29:30.280Z,4.75
2023-04-24T12:32:18.278Z,3.90
2023-04-24T12:35:07.292Z,4.18
2023-04-24T12:37:52.607Z,5.18
2023-04-24T12:40:38.143Z,3.83
2023-04-24T12:43:24.095Z,4.22
2023-04-24T12:46:09.294Z,5.23
2023-04-24T12:48:54.493Z,4.53
2023-04-24T12:51:39.428Z,4.47
2023-04-24T12:54:24.785Z,4.05
2023-04-24T12:57:09.944Z,3.70
2023-04-24T12:59:56.421Z,4.43
2023-04-24T13:02:41.658Z,4.53
2023-04-24T13:05:27.014Z,4.93
2023-04-24T13:08:13.738Z,4.63
2023-04-24T13:10:58.631Z,4.18
2023-04-24T13:13:44.237Z,3.97
2023-04-24T13:16:29.676Z,3.38
2023-04-24T13:19:14.577Z,4.63
2023-04-24T13:22:00.207Z,4.15
2023-04-24T13:24:45.721Z,5.05
2023-04-24T13:27:30.954Z,3.83
2023-04-24T13:30:15.942Z,3.30
2023-04-24T13:33:00.963Z,4.35
2023-04-24T13:35:46.281Z,4.15
2023-04-24T13:38:31.313Z,3.58
2023-04-24T13:41:16.714Z,3.40
2023-04-24T13:44:02.296Z,4.15
2023-04-24T13:46:47.888Z,4.30
2023-04-24T13:49:33.558Z,3.50
2023-04-24T13:52:18.501Z,4.53
2023-04-24T13:55:03.558Z,5.47
2023-04-24T13:57:48.967Z,5.35
2023-04-24T14:00:34.953Z,4.78
2023-04-24T14:03:20.431Z,5.68
2023-04-24T14:06:05.712Z,5.93
2023-04-24T14:08:51.700Z,3.87
2023-04-24T14:11:36.778Z,3.92
2023-04-24T14:14:22.148Z,4.75
2023-04-24T14:17:07.736Z,3.95
2023-04-24T14:19:53.050Z,5.53
2023-04-24T14:22:38.292Z,4.60
2023-04-24T14:25:23.956Z,5.45
2023-04-24T14:28:09.156Z,3.63
2023-04-24T14:30:57.500Z,4.43
2023-04-24T14:33:43.150Z,6.95
2023-04-24T14:36:28.356Z,4.13
2023-04-24T14:39:13.255Z,3.65
2023-04-24T14:41:58.560Z,3.90
2023-04-24T14:44:43.748Z,3.45
2023-04-24T14:47:29.020Z,4.38
2023-04-24T14:50:14.619Z,3.00
2023-04-24T14:52:59.826Z,3.45
2023-04-24T14:55:45.344Z,2.53
2023-04-24T14:58:30.846Z,2.75
2023-04-24T15:01:17.741Z,3.22
2023-04-24T15:04:03.513Z,2.77
2023-04-24T15:06:48.899Z,3.70
2023-04-24T15:09:34.035Z,2.22
2023-04-24T15:12:18.876Z,3.15
2023-04-24T15:15:04.022Z,3.25
2023-04-24T15:17:49.537Z,4.43
2023-04-24T15:20:37.305Z,5.97
2023-04-24T15:23:23.585Z,6.28
2023-04-24T15:26:08.475Z,4.20
2023-04-24T15:28:53.296Z,3.47
2023-04-24T15:31:41.073Z,2.03
2023-04-24T15:34:26.809Z,4.28
2023-04-24T15:37:12.329Z,3.80
2023-04-24T15:39:57.893Z,3.83
2023-04-24T15:42:43.702Z,6.75
2023-04-24T15:45:29.074Z,4.77
2023-04-24T15:48:14.374Z,4.18
2023-04-24T15:50:59.998Z,4.03
2023-04-24T15:53:46.990Z,3.10
2023-04-24T15:56:31.987Z,2.85
2023-04-24T15:59:18.325Z,3.63
2023-04-24T16:02:04.981Z,5.50
2023-04-24T16:04:50.907Z,4.45
2023-04-24T16:07:38.157Z,4.45
2023-04-24T16:10:23.255Z,7.20
2023-04-24T16:13:08.489Z,3.20
2023-04-24T16:15:53.948Z,2.20
2023-04-24T16:18:39.103Z,2.25
2023-04-24T16:21:24.601Z,2.85
2023-04-24T16:24:09.568Z,2.50
2023-04-24T16:26:55.187Z,2.63
2023-04-24T16:29:40.536Z,3.72
2023-04-24T16:32:25.532Z,2.97
2023-04-24T16:35:10.893Z,2.13
2023-04-24T16:37:55.878Z,2.80
2023-04-24T16:44:59.980Z,3.13
2023-04-24T16:47:45.672Z,2.72
2023-04-24T16:50:31.286Z,2.50
2023-04-24T16:53:16.318Z,3.88
2023-04-24T16:56:01.529Z,2.77
2023-04-24T16:58:46.368Z,2.50
2023-04-24T17:01:31.632Z,4.10
2023-04-24T17:04:16.939Z,2.53
2023-04-24T17:07:02.090Z,3.35
2023-04-24T17:09:47.518Z,2.50
2023-04-24T17:12:32.900Z,3.55
2023-04-24T17:15:17.973Z,2.22
2023-04-24T17:18:03.376Z,5.35
2023-04-24T17:20:48.671Z,4.43
2023-04-24T17:23:34.044Z,5.13
2023-04-24T17:26:19.231Z,5.70
2023-04-24T17:29:04.575Z,4.97
2023-04-24T17:31:49.453Z,5.30
2023-04-24T17:34:34.537Z,6.72
2023-04-24T17:37:23.304Z,6.70
2023-04-24T17:40:08.968Z,7.35
2023-04-24T17:42:54.446Z,7.47
2023-04-24T17:45:39.464Z,9.55
2023-04-24T17:48:25.584Z,13.38
2023-04-24T17:51:10.644Z,20.60
2023-04-24T17:53:55.603Z,28.15
2023-04-24T17:56:40.852Z,30.90
2023-04-24T17:59:26.513Z,37.47
2023-04-24T18:02:11.822Z,40.53
2023-04-24T18:04:56.975Z,38.90
2023-04-24T18:07:42.466Z,44.33
2023-04-24T18:10:28.477Z,40.83
2023-04-24T18:13:13.473Z,43.53
2023-04-24T18:15:58.264Z,39.70
2023-04-24T18:18:43.587Z,40.87
2023-04-24T18:21:29.197Z,46.22
2023-04-24T18:24:14.498Z,44.85
2023-04-24T18:26:59.428Z,42.95
2023-04-24T18:29:44.533Z,40.92
2023-04-24T18:32:29.991Z,42.60
2023-04-24T18:35:15.679Z,43.22
2023-04-24T18:38:01.454Z,41.08
2023-04-24T18:40:46.861Z,40.65
2023-04-24T18:43:32.185Z,41.70
2023-04-24T18:46:17.878Z,41.20
2023-04-24T18:49:02.824Z,41.13
2023-04-24T18:51:53.620Z,37.58
2023-04-24T18:54:40.931Z,34.53
2023-04-24T18:57:26.314Z,43.45
2023-04-24T19:00:11.821Z,36.80
2023-04-24T19:02:56.836Z,36.10
2023-04-24T19:05:42.314Z,40.05
2023-04-24T19:08:27.099Z,37.28
2023-04-24T19:11:11.878Z,39.40
2023-04-24T19:13:59.024Z,39.33
2023-04-24T19:16:44.091Z,42.47
2023-04-24T19:19:32.003Z,40.83
2023-04-24T19:22:17.768Z,44.53
2023-04-24T19:25:03.705Z,44.53
2023-04-24T19:27:49.697Z,36.60
2023-04-24T19:30:35.426Z,35.92
2023-04-24T19:33:20.368Z,36.72
2023-04-24T19:36:05.628Z,34.80
2023-04-24T19:38:51.271Z,35.60
2023-04-24T19:41:39.311Z,33.20
2023-04-24T19:44:25.237Z,33.80
2023-04-24T19:47:10.222Z,35.08
2023-04-24T19:49:55.111Z,35.78
2023-04-24T19:52:40.850Z,33.17
2023-04-24T19:55:26.134Z,34.57
2023-04-24T19:58:11.150Z,35.55
2023-04-24T20:00:56.514Z,32.33
2023-04-24T20:03:42.017Z,36.45
2023-04-24T20:06:27.364Z,35.95
2023-04-24T20:09:12.814Z,40.80
2023-04-24T20:11:58.362Z,32.63
2023-04-24T20:14:43.785Z,32.22
2023-04-24T20:17:28.943Z,32.70
2023-04-24T20:20:13.974Z,32.10
2023-04-24T20:22:59.029Z,34.17
2023-04-24T20:25:44.069Z,32.95
2023-04-24T20:28:30.149Z,37.38
2023-04-24T20:31:15.657Z,32.83
2023-04-24T20:34:00.979Z,33.03
2023-04-24T20:36:49.363Z,33.50
2023-04-24T20:39:34.654Z,34.55
2023-04-24T20:42:19.669Z,36.40
2023-04-24T20:45:04.800Z,33.50
2023-04-24T20:47:50.801Z,29.50
2023-04-24T20:50:41.770Z,28.00
2023-04-24T20:53:27.385Z,27.02
2023-04-24T20:56:12.232Z,28.55
2023-04-24T20:58:57.577Z,29.05
2023-04-24T21:01:44.706Z,31.20
2023-04-24T21:04:32.197Z,30.03
2023-04-24T21:07:17.536Z,30.17
2023-04-24T21:10:02.598Z,29.95
2023-04-24T21:12:47.390Z,27.02
2023-04-24T21:15:33.140Z,29.55
2023-04-24T21:18:18.121Z,28.33
2023-04-24T21:21:03.950Z,27.80
2023-04-24T21:23:49.213Z,26.45
2023-04-24T21:26:34.929Z,33.08
2023-04-24T21:29:21.026Z,28.52
2023-04-24T21:32:06.140Z,28.20
2023-04-24T21:34:51.546Z,30.23
2023-04-24T21:37:37.931Z,27.95
2023-04-24T21:40:23.242Z,30.02
2023-04-24T21:43:10.011Z,25.30
2023-04-24T21:45:56.849Z,26.67
2023-04-24T21:48:41.943Z,27.15
2023-04-24T21:51:26.929Z,26.65
2023-04-24T21:54:12.180Z,28.75
2023-04-24T21:56:57.426Z,26.95
2023-04-24T21:59:42.393Z,25.47
2023-04-24T22:02:27.615Z,21.35
2023-04-24T22:05:15.827Z,25.75
2023-04-24T22:08:01.683Z,23.65
2023-04-24T22:10:46.918Z,24.48
2023-04-24T22:13:31.877Z,22.53
2023-04-24T22:16:17.887Z,24.08
2023-04-24T22:19:03.106Z,23.77
2023-04-24T22:21:48.339Z,24.63
2023-04-24T22:24:33.438Z,22.52
2023-04-24T22:27:18.250Z,22.00
2023-04-24T22:30:03.831Z,23.55
2023-04-24T22:32:48.963Z,27.77
2023-04-24T22:35:36.291Z,22.27
2023-04-24T22:38:21.816Z,24.13
2023-04-24T22:41:07.130Z,20.07
2023-04-24T22:43:52.508Z,26.02
2023-04-24T22:46:37.910Z,24.70
2023-04-24T22:49:23.298Z,22.67
2023-04-24T22:52:08.815Z,21.73
2023-04-24T22:54:53.791Z,23.60
2023-04-24T22:57:38.773Z,22.63
2023-04-24T23:00:23.744Z,23.63
2023-04-24T23:03:09.038Z,23.95
2023-04-24T23:05:53.904Z,20.90
2023-04-24T23:08:38.969Z,20.63
2023-04-24T23:11:23.942Z,20.58
2023-04-24T23:14:09.108Z,19.40
2023-04-24T23:16:54.254Z,21.42
2023-04-24T23:19:39.752Z,20.48
2023-04-24T23:22:24.932Z,20.60
2023-04-24T23:25:10.972Z,21.30
2023-04-24T23:27:56.628Z,20.35
2023-04-24T23:30:41.748Z,18.80
2023-04-24T23:33:28.416Z,19.58
2023-04-24T23:36:14.942Z,20.03
2023-04-24T23:39:01.211Z,17.65
2023-04-24T23:41:46.967Z,18.70
2023-04-24T23:44:32.021Z,16.73
2023-04-24T23:47:17.217Z,18.58
2023-04-24T23:50:02.660Z,18.50
2023-04-24T23:52:47.738Z,17.85
2023-04-24T23:55:32.855Z,19.05
2023-04-24T23:58:18.072Z,19.55
